Time;durP1;ratioP1;P1;durP2;ratioP2;P2;SDS_P1;SDS_P2;PMS_P1;PMS_P2;Temp;Humidity;BMP_temperature;BMP_pressure;BME280_temperature;BME280_humidity;BME280_pressure;Samples;Min_cycle;Max_cycle;Signal;HPM_P1;HPM_P2
2021/01/20 00:00:28;;;;;;;4.78;4.47;;;-0.10;99.90;;;;;;5095585;28;20601;-74
2021/01/20 00:02:54;;;;;;;4.93;4.63;;;-0.10;99.90;;;;;;5097193;28;20271;-74
2021/01/20 00:05:21;;;;;;;5.55;5.00;;;0.00;99.90;;;;;;5101506;28;20221;-74
2021/01/20 00:07:47;;;;;;;4.82;4.43;;;0.00;99.90;;;;;;5100230;28;20220;-74
2021/01/20 00:10:16;;;;;;;4.72;4.32;;;-0.10;99.90;;;;;;5099628;27;20219;-74
2021/01/20 00:12:45;;;;;;;4.80;4.50;;;0.00;99.90;;;;;;5098911;28;20221;-74
2021/01/20 00:15:13;;;;;;;4.63;4.32;;;-0.10;99.90;;;;;;5101561;27;20227;-74
2021/01/20 00:17:41;;;;;;;4.43;4.13;;;-0.10;99.90;;;;;;5108403;27;20231;-74
2021/01/20 00:20:09;;;;;;;5.03;4.50;;;-0.10;99.90;;;;;;5100140;28;20714;-74
2021/01/20 00:22:35;;;;;;;4.85;4.55;;;-0.20;99.90;;;;;;5088475;28;21726;-74
2021/01/20 00:25:02;;;;;;;4.70;4.40;;;-0.20;99.90;;;;;;5097360;27;20224;-73
2021/01/20 00:27:29;;;;;;;5.07;4.68;;;-0.20;99.90;;;;;;5103442;28;20232;-74
2021/01/20 00:29:56;;;;;;;4.65;4.35;;;-0.20;99.90;;;;;;5104548;27;20262;-74
2021/01/20 00:32:22;;;;;;;4.80;4.50;;;-0.20;99.90;;;;;;5106439;28;20220;-74
2021/01/20 00:34:49;;;;;;;3.88;3.58;;;-0.20;99.90;;;;;;5101166;27;20215;-74
2021/01/20 00:37:15;;;;;;;4.32;4.13;;;-0.20;99.90;;;;;;5107503;27;20433;-73
2021/01/20 00:39:42;;;;;;;4.20;3.90;;;-0.20;99.90;;;;;;5109935;28;20210;-74
2021/01/20 00:42:09;;;;;;;4.35;4.10;;;-0.20;99.90;;;;;;5085050;27;20703;-74
2021/01/20 00:44:35;;;;;;;4.68;4.38;;;-0.20;99.90;;;;;;5096513;28;20221;-75
2021/01/20 00:47:03;;;;;;;4.50;4.20;;;-0.20;99.90;;;;;;5093793;28;20711;-74
2021/01/20 00:49:29;;;;;;;4.82;4.53;;;-0.20;99.90;;;;;;5090837;28;20270;-74
2021/01/20 00:51:56;;;;;;;4.22;4.03;;;-0.20;99.90;;;;;;5092448;28;20586;-74
2021/01/20 00:54:22;;;;;;;4.22;4.03;;;-0.20;99.90;;;;;;5098052;28;20282;-74
2021/01/20 00:56:49;;;;;;;4.78;4.47;;;-0.20;99.90;;;;;;5110013;27;20224;-74
2021/01/20 00:59:15;;;;;;;4.25;3.95;;;-0.30;99.90;;;;;;5114027;27;20217;-74
2021/01/20 01:01:42;;;;;;;4.60;4.30;;;-0.30;99.90;;;;;;5109806;27;20773;-74
2021/01/20 01:04:09;;;;;;;3.78;3.58;;;-0.40;99.90;;;;;;5108494;27;20697;-74
2021/01/20 01:06:36;;;;;;;4.10;3.80;;;-0.40;99.90;;;;;;5109058;27;20214;-74
2021/01/20 01:09:03;;;;;;;4.38;4.07;;;-0.50;99.90;;;;;;5100296;27;20654;-73
2021/01/20 01:11:30;;;;;;;5.05;4.60;;;-0.50;99.90;;;;;;5096656;27;20221;-74
2021/01/20 01:13:56;;;;;;;5.18;4.78;;;-0.50;99.90;;;;;;5081046;28;20213;-75
2021/01/20 01:16:23;;;;;;;4.60;4.30;;;-0.50;99.90;;;;;;5075746;28;20221;-75
2021/01/20 01:18:49;;;;;;;4.43;4.13;;;-0.50;99.90;;;;;;5073295;28;20228;-74
2021/01/20 01:21:17;;;;;;;4.50;4.20;;;-0.50;99.90;;;;;;5075167;28;20225;-74
2021/01/20 01:23:43;;;;;;;4.47;4.18;;;-0.50;99.90;;;;;;5083500;28;20213;-74
2021/01/20 01:26:10;;;;;;;3.95;3.65;;;-0.50;99.90;;;;;;5097256;28;20227;-74
2021/01/20 01:28:36;;;;;;;4.95;4.65;;;-0.50;99.90;;;;;;5100367;28;20254;-74
2021/01/20 01:31:03;;;;;;;4.90;4.60;;;-0.50;99.90;;;;;;5098084;27;20228;-73
2021/01/20 01:33:31;;;;;;;4.45;4.15;;;-0.60;99.90;;;;;;5096797;28;20228;-74
2021/01/20 01:35:58;;;;;;;4.53;4.15;;;-0.60;99.90;;;;;;5097699;28;20220;-75
2021/01/20 01:38:25;;;;;;;3.72;3.53;;;-0.70;99.90;;;;;;5097793;28;20231;-75
2021/01/20 01:40:52;;;;;;;5.03;4.63;;;-0.70;99.90;;;;;;5095046;27;20240;-74
2021/01/20 01:43:18;;;;;;;4.05;3.85;;;-0.70;99.90;;;;;;5097115;28;20329;-74
2021/01/20 01:45:45;;;;;;;4.80;4.50;;;-0.70;99.90;;;;;;5101263;28;20220;-74
2021/01/20 01:48:11;;;;;;;5.30;5.00;;;-0.70;99.90;;;;;;5097954;27;20313;-74
2021/01/20 01:50:38;;;;;;;4.55;4.25;;;-0.70;99.90;;;;;;5095377;28;20597;-74
2021/01/20 01:53:05;;;;;;;4.57;4.38;;;-0.70;99.90;;;;;;5098922;27;20217;-75
2021/01/20 01:55:32;;;;;;;4.30;4.00;;;-0.70;99.90;;;;;;5103801;27;20220;-74
2021/01/20 01:57:59;;;;;;;4.57;4.28;;;-0.70;99.90;;;;;;5099709;27;20216;-74
2021/01/20 02:00:25;;;;;;;4.63;4.32;;;-0.70;99.90;;;;;;5092489;27;20224;-74
2021/01/20 02:02:52;;;;;;;5.55;4.60;;;-0.60;99.90;;;;;;5097976;27;20231;-75
2021/01/20 02:05:19;;;;;;;4.82;4.43;;;-0.70;99.90;;;;;;5109245;27;20213;-75
2021/01/20 02:07:46;;;;;;;4.35;4.05;;;-0.70;99.90;;;;;;5101542;27;20229;-74
2021/01/20 02:10:14;;;;;;;5.00;4.60;;;-0.70;99.90;;;;;;5095301;28;20221;-75
2021/01/20 02:13:04;;;;;;;4.88;4.57;;;-0.70;99.90;;;;;;5097690;27;20224;-75
2021/01/20 02:15:39;;;;;;;4.60;4.30;;;-0.80;99.90;;;;;;5087243;28;20430;-74
2021/01/20 02:18:10;;;;;;;4.88;4.57;;;-0.70;99.90;;;;;;5096465;27;20219;-75
2021/01/20 02:21:25;;;;;;;3.92;3.63;;;-0.70;99.90;;;;;;5097276;27;20256;-74
2021/01/20 02:23:53;;;;;;;4.45;4.15;;;-0.70;99.90;;;;;;5076104;28;20240;-74
2021/01/20 02:26:26;;;;;;;4.18;3.95;;;-0.60;99.90;;;;;;5075331;28;20217;-75
2021/01/20 02:29:18;;;;;;;4.38;4.07;;;-0.60;99.90;;;;;;5079725;27;20233;-74
2021/01/20 02:31:47;;;;;;;4.80;4.50;;;-0.60;99.90;;;;;;5105744;27;20248;-74
2021/01/20 02:34:18;;;;;;;4.50;4.20;;;-0.70;99.90;;;;;;5090809;27;20225;-74
2021/01/20 02:36:46;;;;;;;4.50;4.30;;;-0.70;99.90;;;;;;5080621;28;20228;-74
2021/01/20 02:39:13;;;;;;;4.80;4.50;;;-0.70;99.90;;;;;;5098796;27;20269;-74
2021/01/20 02:41:40;;;;;;;4.72;4.43;;;-0.70;99.90;;;;;;5097138;27;20274;-74
2021/01/20 02:44:06;;;;;;;4.95;4.65;;;-0.70;99.90;;;;;;5081022;27;20211;-75
2021/01/20 02:46:33;;;;;;;4.82;4.53;;;-0.80;99.90;;;;;;5076767;28;20222;-74
2021/01/20 02:49:01;;;;;;;4.53;4.22;;;-0.70;99.90;;;;;;5074569;28;20214;-74
2021/01/20 02:51:37;;;;;;;4.30;4.03;;;-0.80;99.90;;;;;;5076471;28;20218;-74
2021/01/20 02:54:05;;;;;;;4.50;4.20;;;-0.70;99.90;;;;;;5073462;28;20229;-75
2021/01/20 02:56:33;;;;;;;3.90;3.60;;;-0.80;99.90;;;;;;5074735;28;20225;-74
2021/01/20 02:59:03;;;;;;;5.15;4.82;;;-0.80;99.90;;;;;;5089116;28;20225;-74
2021/01/20 03:01:31;;;;;;;4.13;3.92;;;-0.90;99.90;;;;;;5074124;28;20225;-74
2021/01/20 03:03:59;;;;;;;4.30;4.05;;;-0.90;99.90;;;;;;5073306;28;20688;-74
2021/01/20 03:06:28;;;;;;;4.75;4.45;;;-1.00;99.90;;;;;;5072704;28;20221;-77
2021/01/20 03:08:55;;;;;;;4.50;4.20;;;-1.00;99.90;;;;;;5074697;28;20236;-77
2021/01/20 03:11:22;;;;;;;4.60;4.30;;;-1.00;99.90;;;;;;5073234;28;21144;-74
2021/01/20 03:13:50;;;;;;;4.88;4.53;;;-0.90;99.90;;;;;;5078181;28;20225;-74
2021/01/20 03:16:23;;;;;;;4.95;4.57;;;-0.90;99.90;;;;;;5070451;28;20609;-74
2021/01/20 03:18:49;;;;;;;4.43;4.13;;;-0.90;99.90;;;;;;5069510;28;20245;-74
2021/01/20 03:21:16;;;;;;;4.57;4.28;;;-0.90;99.90;;;;;;5069418;28;20226;-74
2021/01/20 03:23:44;;;;;;;4.72;4.43;;;-0.90;99.90;;;;;;5072099;28;20225;-74
2021/01/20 03:26:10;;;;;;;4.70;4.30;;;-0.90;99.90;;;;;;5076202;28;20232;-74
2021/01/20 03:28:37;;;;;;;4.18;3.88;;;-1.00;99.90;;;;;;5072619;28;20331;-74
2021/01/20 03:31:03;;;;;;;4.18;3.90;;;-1.00;99.90;;;;;;5074701;28;20631;-75
2021/01/20 03:33:30;;;;;;;4.32;4.03;;;-1.00;99.90;;;;;;5075190;28;20590;-75
2021/01/20 03:35:57;;;;;;;4.63;4.32;;;-1.00;99.90;;;;;;5079174;28;20649;-74
2021/01/20 03:38:23;;;;;;;4.38;4.07;;;-1.10;99.90;;;;;;5076190;28;20282;-74
2021/01/20 03:40:51;;;;;;;4.25;3.95;;;-1.10;99.90;;;;;;5080264;28;20695;-74
2021/01/20 03:43:17;;;;;;;5.00;4.60;;;-1.10;99.90;;;;;;5080104;28;20278;-74
2021/01/20 03:45:44;;;;;;;4.88;4.57;;;-1.00;99.90;;;;;;5079093;28;20226;-74
2021/01/20 03:48:10;;;;;;;5.78;5.38;;;-1.00;99.90;;;;;;5074336;28;20728;-75
2021/01/20 03:50:37;;;;;;;5.20;4.70;;;-1.00;99.90;;;;;;5077830;28;20282;-74
2021/01/20 03:53:03;;;;;;;5.28;4.90;;;-1.00;99.90;;;;;;5091242;28;20218;-74
2021/01/20 03:55:30;;;;;;;5.80;5.20;;;-0.90;99.90;;;;;;5076850;28;20225;-74
2021/01/20 03:57:57;;;;;;;5.00;4.60;;;-0.90;99.90;;;;;;5080587;28;20282;-73
2021/01/20 04:00:24;;;;;;;5.70;5.30;;;-0.90;99.90;;;;;;5079069;28;20657;-74
2021/01/20 04:02:51;;;;;;;6.43;4.60;;;-0.90;99.90;;;;;;5078786;28;20288;-74
2021/01/20 04:05:17;;;;;;;4.75;4.45;;;-0.90;99.90;;;;;;5080250;28;20209;-74
2021/01/20 04:07:44;;;;;;;4.43;4.13;;;-0.90;99.90;;;;;;5099600;28;20225;-74
2021/01/20 04:10:12;;;;;;;5.40;5.00;;;-0.80;99.90;;;;;;5072752;28;20229;-74
2021/01/20 04:12:39;;;;;;;5.22;4.72;;;-0.80;99.90;;;;;;5079821;28;20229;-75
2021/01/20 04:15:08;;;;;;;4.70;4.40;;;-0.70;99.90;;;;;;5080921;28;20222;-75
2021/01/20 04:17:36;;;;;;;4.78;4.45;;;-0.70;99.90;;;;;;5082723;28;20217;-74
2021/01/20 04:20:03;;;;;;;4.32;4.03;;;-0.80;99.90;;;;;;5092255;27;20232;-73
2021/01/20 04:22:29;;;;;;;4.90;4.50;;;-0.80;99.90;;;;;;5102903;27;20700;-72
2021/01/20 04:24:56;;;;;;;5.05;4.65;;;-0.80;99.90;;;;;;5103056;27;20835;-74
2021/01/20 04:27:23;;;;;;;4.57;4.28;;;-0.80;99.90;;;;;;5100247;28;20228;-74
2021/01/20 04:29:49;;;;;;;4.88;4.57;;;-0.80;99.90;;;;;;5097060;28;20220;-74
2021/01/20 04:32:16;;;;;;;4.80;4.50;;;-0.80;99.90;;;;;;5101066;27;20220;-74
2021/01/20 04:34:43;;;;;;;5.68;5.28;;;-0.80;99.90;;;;;;5096805;28;20730;-74
2021/01/20 04:37:10;;;;;;;5.85;5.45;;;-0.90;99.90;;;;;;5101043;27;20232;-74
2021/01/20 04:39:36;;;;;;;5.07;4.78;;;-0.90;99.90;;;;;;5100074;27;20963;-74
2021/01/20 04:42:05;;;;;;;5.10;4.75;;;-0.90;99.90;;;;;;5097020;28;20216;-74
2021/01/20 04:44:31;;;;;;;4.78;4.47;;;-0.90;99.90;;;;;;5100267;28;20221;-74
2021/01/20 04:47:00;;;;;;;4.60;4.30;;;-0.90;99.90;;;;;;5115791;28;20277;-74
2021/01/20 04:49:28;;;;;;;5.90;5.40;;;-0.80;99.90;;;;;;5094083;28;20221;-74
2021/01/20 04:51:56;;;;;;;5.30;4.90;;;-0.80;99.90;;;;;;5073799;28;20229;-74
2021/01/20 04:54:24;;;;;;;5.55;5.15;;;-0.80;99.90;;;;;;5086933;28;20694;-74
2021/01/20 04:56:51;;;;;;;5.90;4.88;;;-0.80;99.90;;;;;;5099829;28;20274;-73
2021/01/20 04:59:18;;;;;;;5.38;4.97;;;-0.80;99.90;;;;;;5101150;28;20231;-74
2021/01/20 05:01:45;;;;;;;6.20;5.70;;;-0.80;99.90;;;;;;5100108;27;21071;-74
2021/01/20 05:04:12;;;;;;;5.30;4.90;;;-0.80;99.90;;;;;;5098072;28;20292;-74
2021/01/20 05:06:39;;;;;;;6.10;5.50;;;-0.80;99.90;;;;;;5098028;28;20246;-75
2021/01/20 05:09:06;;;;;;;5.45;5.05;;;-0.80;99.90;;;;;;5096947;27;20612;-74
2021/01/20 05:11:41;;;;;;;6.05;5.65;;;-0.90;99.90;;;;;;5120132;27;20226;-73
2021/01/20 05:14:12;;;;;;;6.22;5.72;;;-0.90;99.90;;;;;;5111617;28;20228;-74
2021/01/20 05:16:41;;;;;;;5.78;5.18;;;-1.00;99.90;;;;;;5096902;27;20217;-74
2021/01/20 05:19:08;;;;;;;5.45;5.05;;;-1.00;99.90;;;;;;5095714;28;20283;-74
2021/01/20 05:21:35;;;;;;;5.18;4.78;;;-1.00;99.90;;;;;;5101334;28;20225;-75
2021/01/20 05:24:23;;;;;;;5.25;4.85;;;-0.90;99.90;;;;;;5098108;28;20237;-74
2021/01/20 05:26:50;;;;;;;5.95;5.55;;;-0.90;99.90;;;;;;5085075;28;20217;-74
2021/01/20 05:29:18;;;;;;;5.95;5.45;;;-0.90;99.90;;;;;;5082855;28;20286;-74
2021/01/20 05:31:45;;;;;;;5.35;5.00;;;-0.80;99.90;;;;;;5084843;28;20225;-75
2021/01/20 05:34:29;;;;;;;5.20;4.90;;;-0.70;99.90;;;;;;5098982;27;20595;-74
2021/01/20 05:37:05;;;;;;;5.15;4.75;;;-0.70;99.90;;;;;;5104190;27;20217;-75
2021/01/20 05:39:33;;;;;;;5.07;4.68;;;-0.60;99.90;;;;;;5121414;27;20220;-73
2021/01/20 05:42:01;;;;;;;5.05;4.72;;;-0.60;99.90;;;;;;5106393;27;20228;-74
2021/01/20 05:44:28;;;;;;;5.47;5.07;;;-0.60;99.90;;;;;;5103070;27;20209;-74
2021/01/20 05:46:55;;;;;;;5.38;5.07;;;-0.60;99.90;;;;;;5075251;28;20230;-75
2021/01/20 05:49:23;;;;;;;5.43;5.03;;;-0.60;99.90;;;;;;5072152;28;20602;-74
2021/01/20 05:51:49;;;;;;;5.35;4.95;;;-0.60;99.90;;;;;;5077104;28;20246;-75
2021/01/20 05:54:30;;;;;;;5.03;4.70;;;-0.70;99.90;;;;;;5070297;28;20243;-76
2021/01/20 05:57:11;;;;;;;5.10;4.70;;;-0.60;99.90;;;;;;5076431;28;20229;-74
2021/01/20 05:59:37;;;;;;;5.38;4.97;;;-0.60;99.90;;;;;;5069418;28;20210;-75
2021/01/20 06:02:04;;;;;;;5.45;5.00;;;-0.50;99.90;;;;;;5074167;28;20494;-75
2021/01/20 06:04:33;;;;;;;4.70;4.40;;;-0.50;99.90;;;;;;5077093;28;20213;-75
2021/01/20 06:07:03;;;;;;;5.53;5.03;;;-0.50;99.90;;;;;;5106622;27;20847;-75
2021/01/20 06:09:31;;;;;;;6.05;5.55;;;-0.50;99.90;;;;;;5109469;27;20224;-75
2021/01/20 06:11:57;;;;;;;6.65;6.10;;;-0.60;99.90;;;;;;5106587;27;20299;-75
2021/01/20 06:14:25;;;;;;;7.82;7.03;;;-0.80;99.90;;;;;;5101791;27;20237;-75
2021/01/20 06:16:55;;;;;;;6.70;6.10;;;-1.00;99.90;;;;;;5110534;27;20690;-75
2021/01/20 06:19:24;;;;;;;15.93;14.30;;;-1.10;99.90;;;;;;5105687;27;20810;-75
2021/01/20 06:21:52;;;;;;;10.25;9.15;;;-1.10;99.90;;;;;;5102840;27;20217;-75
2021/01/20 06:24:31;;;;;;;9.45;8.45;;;-1.10;99.90;;;;;;5101316;27;20217;-75
2021/01/20 06:27:04;;;;;;;7.60;7.00;;;-1.10;99.90;;;;;;5107127;27;20727;-75
2021/01/20 06:29:36;;;;;;;7.80;7.10;;;-1.20;99.90;;;;;;5101101;27;20724;-75
2021/01/20 06:32:05;;;;;;;6.75;6.13;;;-1.20;99.90;;;;;;5097609;28;20712;-75
2021/01/20 06:34:31;;;;;;;10.18;8.77;;;-1.10;99.90;;;;;;5092694;28;20228;-75
2021/01/20 06:36:58;;;;;;;11.88;10.43;;;-1.10;99.90;;;;;;5074007;28;20282;-75
2021/01/20 06:39:42;;;;;;;13.02;10.30;;;-1.00;99.90;;;;;;5075836;27;20240;-75
2021/01/20 06:42:32;;;;;;;11.43;9.15;;;-1.00;99.90;;;;;;5096471;27;20236;-74
2021/01/20 06:45:16;;;;;;;9.02;8.07;;;-0.90;99.90;;;;;;5080601;27;20932;-74
2021/01/20 06:48:03;;;;;;;11.55;8.32;;;-0.90;99.90;;;;;;5070687;28;20229;-74
2021/01/20 06:50:31;;;;;;;8.68;7.38;;;-0.90;99.90;;;;;;5068435;28;20253;-74
2021/01/20 06:53:01;;;;;;;7.63;6.65;;;-0.90;99.90;;;;;;5076330;28;20233;-73
2021/01/20 06:55:32;;;;;;;8.38;7.65;;;-0.90;99.90;;;;;;5067696;28;20218;-76
2021/01/20 06:58:16;;;;;;;7.53;6.68;;;-0.90;99.90;;;;;;5076175;28;20316;-75
2021/01/20 07:00:44;;;;;;;7.28;6.55;;;-0.90;99.90;;;;;;5095830;27;20227;-74
2021/01/20 07:03:11;;;;;;;7.32;6.25;;;-1.00;99.90;;;;;;5092158;28;20382;-77
2021/01/20 07:05:39;;;;;;;7.53;6.80;;;-1.00;99.90;;;;;;5096141;27;20257;-76
2021/01/20 07:08:09;;;;;;;7.13;6.43;;;-1.00;99.90;;;;;;5096446;27;20539;-75
2021/01/20 07:11:07;;;;;;;6.68;6.07;;;-1.00;99.90;;;;;;5091074;28;20228;-74
2021/01/20 07:13:39;;;;;;;5.25;4.85;;;-0.90;99.90;;;;;;5094739;28;20216;-75
2021/01/20 07:16:09;;;;;;;6.30;5.80;;;-0.90;99.90;;;;;;5096016;28;20220;-75
2021/01/20 07:18:39;;;;;;;6.38;5.88;;;-0.80;99.90;;;;;;5096455;28;20223;-75
2021/01/20 07:21:07;;;;;;;7.43;6.75;;;-0.70;99.90;;;;;;5077911;28;20221;-74
2021/01/20 07:23:34;;;;;;;8.77;7.00;;;-0.70;99.90;;;;;;5080498;28;20229;-76
2021/01/20 07:26:03;;;;;;;7.50;6.40;;;-0.70;99.90;;;;;;5094689;28;20225;-76
2021/01/20 07:28:31;;;;;;;8.77;7.97;;;-0.80;99.90;;;;;;5086844;27;20299;-76
2021/01/20 07:31:10;;;;;;;9.38;7.45;;;-0.70;99.90;;;;;;5090687;27;20259;-77
2021/01/20 07:33:37;;;;;;;6.88;6.28;;;-0.70;99.90;;;;;;5092870;28;20217;-76
2021/01/20 07:36:16;;;;;;;7.00;6.47;;;-0.70;99.90;;;;;;5079149;28;20227;-76
2021/01/20 07:38:45;;;;;;;7.35;6.70;;;-0.60;99.90;;;;;;5089492;27;20284;-75
2021/01/20 07:41:22;;;;;;;6.28;5.78;;;-0.60;99.90;;;;;;5097926;27;20232;-75
2021/01/20 07:43:50;;;;;;;6.30;5.80;;;-0.60;99.90;;;;;;5123365;27;20224;-77
2021/01/20 07:46:23;;;;;;;7.38;6.80;;;-0.50;99.90;;;;;;5091888;27;20290;-75
2021/01/20 07:48:51;;;;;;;7.93;6.88;;;-0.50;99.90;;;;;;5083449;28;20294;-76
2021/01/20 07:51:19;;;;;;;11.85;9.05;;;-0.40;99.90;;;;;;5084595;28;20226;-76
2021/01/20 07:53:57;;;;;;;32.30;19.98;;;-0.40;99.90;;;;;;5079730;28;20270;-76
2021/01/20 07:56:23;;;;;;;25.25;17.30;;;-0.30;99.90;;;;;;5070900;28;20221;-76
2021/01/20 07:58:50;;;;;;;22.58;13.30;;;-0.20;99.90;;;;;;5063932;28;20259;-76
2021/01/20 08:01:28;;;;;;;17.30;11.15;;;-0.20;99.90;;;;;;5064737;28;20283;-75
2021/01/20 08:03:56;;;;;;;18.25;11.52;;;-0.20;99.90;;;;;;5069043;28;20226;-75
2021/01/20 08:06:23;;;;;;;15.48;11.50;;;-0.10;99.90;;;;;;5095108;27;20293;-76
2021/01/20 08:08:51;;;;;;;11.23;9.82;;;-0.10;99.90;;;;;;5103823;27;20221;-76
2021/01/20 08:11:19;;;;;;;11.82;10.45;;;-0.10;99.90;;;;;;5096324;27;20221;-76
2021/01/20 08:13:46;;;;;;;12.15;10.90;;;0.00;99.90;;;;;;5100997;27;20236;-76
2021/01/20 08:16:14;;;;;;;10.48;9.45;;;0.10;99.90;;;;;;5075697;27;20256;-77
2021/01/20 08:18:45;;;;;;;10.07;9.02;;;0.20;99.90;;;;;;5085645;28;20206;-76
2021/01/20 08:21:12;;;;;;;9.45;7.97;;;0.40;99.90;;;;;;5091067;27;20224;-76
2021/01/20 08:23:54;;;;;;;7.38;6.68;;;1.30;99.90;;;;;;5104662;27;20561;-76
2021/01/20 08:26:25;;;;;;;7.90;7.20;;;2.30;99.90;;;;;;5088012;27;20227;-77
2021/01/20 08:29:04;;;;;;;8.80;7.30;;;3.20;99.90;;;;;;5098290;27;20285;-76
2021/01/20 08:31:31;;;;;;;7.22;6.63;;;3.80;99.90;;;;;;5095613;27;20221;-77
2021/01/20 08:34:14;;;;;;;7.18;6.57;;;4.20;99.90;;;;;;5095249;28;20221;-77
2021/01/20 08:36:54;;;;;;;8.52;7.00;;;4.40;99.90;;;;;;5089120;27;20211;-75
2021/01/20 08:39:21;;;;;;;8.93;7.80;;;5.00;99.90;;;;;;5096429;27;20234;-75
2021/01/20 08:42:25;;;;;;;7.88;7.07;;;5.60;99.90;;;;;;5074835;28;20765;-75
2021/01/20 08:45:32;;;;;;;7.60;6.90;;;6.30;99.90;;;;;;5101259;27;20247;-75
2021/01/20 08:48:01;;;;;;;10.70;7.90;;;6.90;99.90;;;;;;5076046;28;20247;-76
2021/01/20 08:50:38;;;;;;;11.18;7.50;;;7.50;99.90;;;;;;5114290;28;20249;-76
2021/01/20 08:53:06;;;;;;;8.40;7.53;;;7.80;99.90;;;;;;5097241;27;20221;-77
2021/01/20 08:55:34;;;;;;;9.15;7.32;;;7.90;99.90;;;;;;5095551;27;20240;-76
2021/01/20 08:58:21;;;;;;;8.50;6.80;;;8.20;99.90;;;;;;5095616;28;20259;-75
2021/01/20 09:00:50;;;;;;;7.38;6.38;;;8.50;99.90;;;;;;5096778;27;20220;-76
2021/01/20 09:03:17;;;;;;;7.82;6.32;;;8.40;99.90;;;;;;5096982;27;20225;-74
2021/01/20 09:05:45;;;;;;;6.65;6.03;;;8.50;99.90;;;;;;5095765;28;20257;-76
2021/01/20 09:08:13;;;;;;;7.18;6.47;;;8.60;99.90;;;;;;5096682;28;20236;-76
2021/01/20 09:10:39;;;;;;;6.88;5.85;;;8.70;99.90;;;;;;5108590;27;20228;-77
2021/01/20 09:13:06;;;;;;;6.57;5.97;;;8.80;99.90;;;;;;5097442;27;20648;-76
2021/01/20 09:15:33;;;;;;;6.70;6.00;;;9.00;99.90;;;;;;5093999;28;20213;-76
2021/01/20 09:17:59;;;;;;;7.03;6.43;;;9.10;99.90;;;;;;5092353;28;20236;-77
2021/01/20 09:20:26;;;;;;;7.00;5.97;;;9.10;99.90;;;;;;5095460;27;20510;-76
2021/01/20 09:22:53;;;;;;;8.57;6.43;;;9.20;99.90;;;;;;5101452;27;20225;-75
2021/01/20 09:25:20;;;;;;;7.90;6.80;;;9.30;99.90;;;;;;5094849;27;20266;-74
2021/01/20 09:27:46;;;;;;;9.13;6.45;;;9.40;99.90;;;;;;5097278;28;20224;-75
2021/01/20 09:30:14;;;;;;;7.53;6.18;;;10.30;99.90;;;;;;5094378;28;20247;-75
2021/01/20 09:32:41;;;;;;;11.07;6.55;;;11.50;97.90;;;;;;5095319;27;20240;-76
2021/01/20 09:35:10;;;;;;;8.45;6.30;;;11.60;97.30;;;;;;5096730;27;20232;-74
2021/01/20 09:37:37;;;;;;;8.13;6.45;;;12.60;95.40;;;;;;5096354;28;20220;-75
2021/01/20 09:40:07;;;;;;;8.70;6.65;;;12.20;94.30;;;;;;5094728;28;20233;-76
2021/01/20 09:42:34;;;;;;;9.98;6.88;;;13.10;93.40;;;;;;5096572;27;20936;-75
2021/01/20 09:45:01;;;;;;;7.40;6.70;;;13.10;90.90;;;;;;5095501;27;20821;-76
2021/01/20 09:47:27;;;;;;;6.95;6.25;;;11.80;92.60;;;;;;5099302;27;20716;-75
2021/01/20 09:49:54;;;;;;;7.63;6.07;;;10.70;94.00;;;;;;5099547;27;20224;-76
2021/01/20 09:52:25;;;;;;;7.55;6.40;;;10.20;95.20;;;;;;5102028;27;20419;-77
2021/01/20 09:54:53;;;;;;;6.72;6.00;;;11.10;94.70;;;;;;5099693;27;20227;-75
2021/01/20 09:57:20;;;;;;;7.18;6.10;;;11.40;93.00;;;;;;5106607;27;20221;-75
2021/01/20 09:59:47;;;;;;;7.20;6.57;;;11.20;94.00;;;;;;5100667;27;20245;-75
2021/01/20 10:02:14;;;;;;;7.55;6.30;;;10.10;94.40;;;;;;5075106;28;20581;-76
2021/01/20 10:04:41;;;;;;;7.22;5.82;;;9.10;95.70;;;;;;5081460;28;20944;-76
2021/01/20 10:07:08;;;;;;;6.40;5.55;;;8.20;96.80;;;;;;5073237;28;20610;-74
2021/01/20 10:09:37;;;;;;;7.35;6.05;;;7.30;98.10;;;;;;5069238;28;20237;-76
2021/01/20 10:12:04;;;;;;;10.52;7.10;;;6.70;99.10;;;;;;5093106;27;20231;-75
2021/01/20 10:14:32;;;;;;;6.60;6.03;;;6.20;99.90;;;;;;5092839;27;20274;-75
2021/01/20 10:16:58;;;;;;;6.82;6.22;;;5.90;99.90;;;;;;5089908;28;20223;-76
2021/01/20 10:19:25;;;;;;;6.90;6.20;;;5.70;99.90;;;;;;5077072;28;20235;-76
2021/01/20 10:21:52;;;;;;;9.25;6.93;;;5.60;99.90;;;;;;5088487;28;22516;-76
2021/01/20 10:24:18;;;;;;;7.70;6.60;;;5.50;99.90;;;;;;5096722;28;20225;-75
2021/01/20 10:26:45;;;;;;;7.47;6.53;;;5.80;99.90;;;;;;5089480;28;20229;-76
2021/01/20 10:29:11;;;;;;;6.82;6.18;;;6.60;99.90;;;;;;5094088;28;20236;-76
2021/01/20 10:31:41;;;;;;;7.68;5.72;;;7.40;99.90;;;;;;5095409;27;20224;-75
2021/01/20 10:34:08;;;;;;;6.55;5.90;;;8.20;99.90;;;;;;5092790;28;20228;-76
2021/01/20 10:36:36;;;;;;;7.07;5.95;;;8.90;99.90;;;;;;5095116;28;20670;-76
2021/01/20 10:39:03;;;;;;;7.30;6.40;;;9.70;99.00;;;;;;5092660;27;20224;-75
2021/01/20 10:41:30;;;;;;;8.73;6.97;;;10.30;98.20;;;;;;5084565;28;20236;-76
2021/01/20 10:43:56;;;;;;;9.18;6.40;;;10.90;97.10;;;;;;5077634;28;20226;-75
2021/01/20 10:46:25;;;;;;;10.43;6.97;;;11.20;96.40;;;;;;5074027;28;20226;-76
2021/01/20 10:48:53;;;;;;;6.80;5.90;;;11.20;96.30;;;;;;5076765;28;20228;-76
2021/01/20 10:51:20;;;;;;;9.55;6.30;;;11.00;95.30;;;;;;5086070;28;20244;-76
2021/01/20 10:53:46;;;;;;;12.07;6.78;;;10.90;95.60;;;;;;5078107;27;20213;-75
2021/01/20 10:56:13;;;;;;;9.18;5.97;;;10.60;95.40;;;;;;5086889;28;20226;-76
2021/01/20 10:58:40;;;;;;;9.48;6.78;;;10.60;95.50;;;;;;5070143;28;20325;-75
2021/01/20 11:01:07;;;;;;;11.48;6.20;;;10.40;96.00;;;;;;5077828;28;20229;-76
2021/01/20 11:03:33;;;;;;;6.20;5.32;;;10.20;95.50;;;;;;5089292;28;20217;-76
2021/01/20 11:06:01;;;;;;;8.52;6.28;;;10.00;96.40;;;;;;5087326;28;20714;-75
2021/01/20 11:08:27;;;;;;;8.38;5.90;;;10.20;96.50;;;;;;5071079;28;20655;-76
2021/01/20 11:10:54;;;;;;;11.45;6.65;;;10.00;96.30;;;;;;5087377;27;20232;-75
2021/01/20 11:13:20;;;;;;;7.40;6.70;;;10.10;95.80;;;;;;5103580;27;20464;-75
2021/01/20 11:15:47;;;;;;;7.88;6.63;;;10.20;95.80;;;;;;5106887;27;20212;-76
2021/01/20 11:18:14;;;;;;;7.47;6.28;;;10.30;96.20;;;;;;5089329;27;20216;-75
2021/01/20 11:20:42;;;;;;;7.43;6.72;;;10.20;95.40;;;;;;5071270;28;20238;-77
2021/01/20 11:23:11;;;;;;;7.75;6.50;;;10.20;95.80;;;;;;5095358;27;20264;-76
2021/01/20 11:25:38;;;;;;;7.10;6.50;;;10.20;95.60;;;;;;5104924;27;20529;-76
2021/01/20 11:28:04;;;;;;;9.48;6.22;;;10.20;95.80;;;;;;5073889;28;20233;-77
2021/01/20 11:30:31;;;;;;;6.53;5.93;;;10.10;96.10;;;;;;5090375;28;20225;-77
2021/01/20 11:32:57;;;;;;;6.40;5.80;;;9.40;96.00;;;;;;5080506;28;20218;-75
2021/01/20 11:35:24;;;;;;;7.28;6.43;;;8.90;96.50;;;;;;5063618;28;20226;-76
2021/01/20 11:37:56;;;;;;;8.40;6.57;;;8.80;96.10;;;;;;5084274;28;20213;-77
2021/01/20 11:40:24;;;;;;;8.10;6.45;;;8.30;97.20;;;;;;5087663;28;20229;-76
2021/01/20 11:42:57;;;;;;;6.90;6.13;;;7.90;97.50;;;;;;5085469;28;20224;-76
2021/01/20 11:45:26;;;;;;;8.38;7.00;;;7.60;98.20;;;;;;5087820;28;20289;-75
2021/01/20 11:47:53;;;;;;;10.35;7.82;;;7.30;98.90;;;;;;5082705;28;20289;-75
2021/01/20 11:50:20;;;;;;;8.25;7.18;;;7.20;99.00;;;;;;5082277;27;20224;-75
2021/01/20 11:52:48;;;;;;;7.07;6.38;;;7.00;99.50;;;;;;5071184;28;20213;-76
2021/01/20 11:55:14;;;;;;;7.93;7.10;;;6.80;99.70;;;;;;5072027;28;20217;-77
2021/01/20 11:57:42;;;;;;;7.68;6.88;;;6.80;99.90;;;;;;5091599;28;20753;-75
2021/01/20 12:00:10;;;;;;;7.82;6.90;;;6.70;99.90;;;;;;5089212;27;20219;-75
2021/01/20 12:02:37;;;;;;;8.32;6.78;;;6.50;99.90;;;;;;5113662;27;20228;-76
2021/01/20 12:05:05;;;;;;;7.40;6.70;;;6.40;99.90;;;;;;5111465;27;20220;-76
2021/01/20 12:07:32;;;;;;;7.82;6.60;;;6.40;99.90;;;;;;5108520;27;20716;-76
2021/01/20 12:09:58;;;;;;;7.03;6.28;;;6.40;99.90;;;;;;5088335;28;20701;-76
2021/01/20 12:12:25;;;;;;;8.68;6.85;;;6.40;99.90;;;;;;5077799;28;20229;-76
2021/01/20 12:14:52;;;;;;;6.90;5.93;;;6.40;99.90;;;;;;5071918;28;20218;-76
2021/01/20 12:17:19;;;;;;;7.78;6.72;;;6.20;99.90;;;;;;5071934;28;20217;-76
2021/01/20 12:19:45;;;;;;;7.38;6.55;;;5.90;99.90;;;;;;5084975;27;20213;-76
2021/01/20 12:22:12;;;;;;;6.90;6.30;;;5.70;99.90;;;;;;5096358;27;20923;-75
2021/01/20 12:24:38;;;;;;;7.00;6.25;;;5.60;99.90;;;;;;5098990;28;20219;-76
2021/01/20 12:27:05;;;;;;;9.57;7.10;;;5.60;99.90;;;;;;5096968;28;20233;-76
2021/01/20 12:29:32;;;;;;;7.20;6.50;;;5.60;99.90;;;;;;5097942;27;20778;-76
2021/01/20 12:31:59;;;;;;;7.80;6.93;;;5.60;99.90;;;;;;5094140;28;20270;-75
2021/01/20 12:34:25;;;;;;;10.45;6.70;;;5.50;99.90;;;;;;5099415;27;20224;-76
2021/01/20 12:36:52;;;;;;;7.90;7.10;;;5.40;99.90;;;;;;5093850;27;20285;-75
2021/01/20 12:39:18;;;;;;;7.68;6.88;;;5.30;99.90;;;;;;5115419;28;20216;-75
2021/01/20 12:41:45;;;;;;;6.95;6.20;;;5.40;99.90;;;;;;5100832;27;20715;-76
2021/01/20 12:44:12;;;;;;;8.68;7.55;;;5.50;99.90;;;;;;5097865;27;20279;-76
2021/01/20 12:46:38;;;;;;;9.85;7.13;;;5.50;99.90;;;;;;5098480;27;20216;-76
2021/01/20 12:49:06;;;;;;;8.50;7.03;;;5.60;99.90;;;;;;5096481;27;20233;-76
2021/01/20 12:51:33;;;;;;;7.35;6.65;;;5.60;99.90;;;;;;5098225;28;20244;-74
2021/01/20 12:54:01;;;;;;;8.43;7.13;;;5.60;99.90;;;;;;5099193;27;20303;-75
2021/01/20 12:56:27;;;;;;;8.75;6.72;;;5.50;99.90;;;;;;5097408;28;20943;-76